sensor_id;sensor_type;location;lat;lon;timestamp;temperature;humidity
37050;DHT22;22958;51.232;6.826;2022-09-20T00:01:52;11.70;99.90
37050;DHT22;22958;51.232;6.826;2022-09-20T00:04:17;11.70;99.90
37050;DHT22;22958;51.232;6.826;2022-09-20T00:06:43;11.70;99.90
37050;DHT22;22958;51.232;6.826;2022-09-20T00:09:08;11.80;99.90
37050;DHT22;22958;51.232;6.826;2022-09-20T00:11:34;11.70;99.90
37050;DHT22;22958;51.232;6.826;2022-09-20T00:14:00;11.80;99.90
37050;DHT22;22958;51.232;6.826;2022-09-20T00:16:28;11.80;99.90
37050;DHT22;22958;51.232;6.826;2022-09-20T00:18:55;11.80;99.90
37050;DHT22;22958;51.232;6.826;2022-09-20T00:21:22;11.80;99.90
37050;DHT22;22958;51.232;6.826;2022-09-20T00:23:48;11.80;99.90
37050;DHT22;22958;51.232;6.826;2022-09-20T00:26:14;11.80;99.90
37050;DHT22;22958;51.232;6.826;2022-09-20T00:28:40;11.80;99.90
37050;DHT22;22958;51.232;6.826;2022-09-20T00:31:05;11.90;99.90
37050;DHT22;22958;51.232;6.826;2022-09-20T00:33:32;11.90;99.90
37050;DHT22;22958;51.232;6.826;2022-09-20T00:36:16;11.90;99.90
37050;DHT22;22958;51.232;6.826;2022-09-20T00:38:42;11.90;99.90
37050;DHT22;22958;51.232;6.826;2022-09-20T00:41:07;11.90;99.90
37050;DHT22;22958;51.232;6.826;2022-09-20T00:43:37;11.90;99.90
37050;DHT22;22958;51.232;6.826;2022-09-20T00:46:03;11.90;99.90
37050;DHT22;22958;51.232;6.826;2022-09-20T00:48:29;11.90;99.90
37050;DHT22;22958;51.232;6.826;2022-09-20T00:50:56;11.90;99.90
37050;DHT22;22958;51.232;6.826;2022-09-20T00:53:24;11.90;99.90
37050;DHT22;22958;51.232;6.826;2022-09-20T00:55:52;11.90;99.90
37050;DHT22;22958;51.232;6.826;2022-09-20T00:58:20;11.90;99.90
37050;DHT22;22958;51.232;6.826;2022-09-20T01:00:47;11.90;99.90
37050;DHT22;22958;51.232;6.826;2022-09-20T01:03:13;11.90;99.90
37050;DHT22;22958;51.232;6.826;2022-09-20T01:05:40;11.90;99.90
37050;DHT22;22958;51.232;6.826;2022-09-20T01:08:06;11.90;99.90
37050;DHT22;22958;51.232;6.826;2022-09-20T01:10:33;11.90;99.90
37050;DHT22;22958;51.232;6.826;2022-09-20T01:12:58;11.90;99.90
37050;DHT22;22958;51.232;6.826;2022-09-20T01:15:23;11.90;99.90
37050;DHT22;22958;51.232;6.826;2022-09-20T01:17:52;11.90;99.90
37050;DHT22;22958;51.232;6.826;2022-09-20T01:20:29;11.90;99.90
37050;DHT22;22958;51.232;6.826;2022-09-20T01:28:08;11.90;99.90
37050;DHT22;22958;51.232;6.826;2022-09-20T01:30:42;11.90;99.90
37050;DHT22;22958;51.232;6.826;2022-09-20T01:35:53;11.90;99.90
37050;DHT22;22958;51.232;6.826;2022-09-20T01:38:37;11.90;99.90
37050;DHT22;22958;51.232;6.826;2022-09-20T01:43:36;11.90;99.90
37050;DHT22;22958;51.232;6.826;2022-09-20T01:46:20;11.90;99.90
37050;DHT22;22958;51.232;6.826;2022-09-20T01:48:49;11.90;99.90
37050;DHT22;22958;51.232;6.826;2022-09-20T01:59:49;11.90;99.90
37050;DHT22;22958;51.232;6.826;2022-09-20T02:07:36;11.90;99.90
37050;DHT22;22958;51.232;6.826;2022-09-20T02:12:54;11.90;99.90
37050;DHT22;22958;51.232;6.826;2022-09-20T02:18:09;11.90;99.90
37050;DHT22;22958;51.232;6.826;2022-09-20T02:23:11;11.80;99.90
37050;DHT22;22958;51.232;6.826;2022-09-20T02:28:30;11.90;99.90
37050;DHT22;22958;51.232;6.826;2022-09-20T02:31:17;11.90;99.90
37050;DHT22;22958;51.232;6.826;2022-09-20T02:36:46;11.90;99.90
37050;DHT22;22958;51.232;6.826;2022-09-20T02:39:21;11.90;99.90
37050;DHT22;22958;51.232;6.826;2022-09-20T02:44:27;11.90;99.90
37050;DHT22;22958;51.232;6.826;2022-09-20T02:52:03;11.90;99.90
37050;DHT22;22958;51.232;6.826;2022-09-20T02:59:38;11.80;99.90
37050;DHT22;22958;51.232;6.826;2022-09-20T03:04:42;11.80;99.90
37050;DHT22;22958;51.232;6.826;2022-09-20T03:09:46;11.90;99.90
37050;DHT22;22958;51.232;6.826;2022-09-20T03:12:25;11.80;99.90
37050;DHT22;22958;51.232;6.826;2022-09-20T03:15:09;11.80;99.90
37050;DHT22;22958;51.232;6.826;2022-09-20T03:17:47;11.80;99.90
37050;DHT22;22958;51.232;6.826;2022-09-20T03:20:18;11.80;99.90
37050;DHT22;22958;51.232;6.826;2022-09-20T03:22:53;11.80;99.90
37050;DHT22;22958;51.232;6.826;2022-09-20T03:41:08;11.70;99.90
37050;DHT22;22958;51.232;6.826;2022-09-20T03:53:56;11.80;99.90
37050;DHT22;22958;51.232;6.826;2022-09-20T04:07:26;11.70;99.90
37050;DHT22;22958;51.232;6.826;2022-09-20T04:14:44;11.70;99.90
37050;DHT22;22958;51.232;6.826;2022-09-20T04:17:25;11.80;99.90
37050;DHT22;22958;51.232;6.826;2022-09-20T04:22:21;11.80;99.90
37050;DHT22;22958;51.232;6.826;2022-09-20T04:24:51;11.80;99.90
37050;DHT22;22958;51.232;6.826;2022-09-20T04:29:50;11.70;99.90
37050;DHT22;22958;51.232;6.826;2022-09-20T04:37:48;11.70;99.90
37050;DHT22;22958;51.232;6.826;2022-09-20T04:43:06;11.70;99.90
37050;DHT22;22958;51.232;6.826;2022-09-20T04:54:20;11.70;99.90
37050;DHT22;22958;51.232;6.826;2022-09-20T04:59:04;11.70;99.90
37050;DHT22;22958;51.232;6.826;2022-09-20T05:04:04;11.70;99.90
37050;DHT22;22958;51.232;6.826;2022-09-20T05:06:41;11.70;99.90
37050;DHT22;22958;51.232;6.826;2022-09-20T05:12:00;11.70;99.90
37050;DHT22;22958;51.232;6.826;2022-09-20T05:14:57;11.80;99.90
37050;DHT22;22958;51.232;6.826;2022-09-20T05:23:20;11.70;99.90
37050;DHT22;22958;51.232;6.826;2022-09-20T05:31:29;11.70;99.90
37050;DHT22;22958;51.232;6.826;2022-09-20T05:33:55;11.70;99.90
37050;DHT22;22958;51.232;6.826;2022-09-20T05:39:01;11.80;99.90
37050;DHT22;22958;51.232;6.826;2022-09-20T05:44:46;11.80;99.90
37050;DHT22;22958;51.232;6.826;2022-09-20T05:52:26;11.80;99.90
37050;DHT22;22958;51.232;6.826;2022-09-20T05:55:05;11.80;99.90
37050;DHT22;22958;51.232;6.826;2022-09-20T05:57:52;11.80;99.90
37050;DHT22;22958;51.232;6.826;2022-09-20T06:00:21;11.90;99.90
37050;DHT22;22958;51.232;6.826;2022-09-20T06:05:28;11.90;99.90
37050;DHT22;22958;51.232;6.826;2022-09-20T06:08:15;11.90;99.90
37050;DHT22;22958;51.232;6.826;2022-09-20T06:10:55;12.00;99.90
37050;DHT22;22958;51.232;6.826;2022-09-20T06:13:28;11.90;99.90
37050;DHT22;22958;51.232;6.826;2022-09-20T06:16:00;11.90;99.90
37050;DHT22;22958;51.232;6.826;2022-09-20T06:21:04;12.00;99.90
37050;DHT22;22958;51.232;6.826;2022-09-20T06:23:33;12.10;99.90
37050;DHT22;22958;51.232;6.826;2022-09-20T06:26:03;12.00;99.90
37050;DHT22;22958;51.232;6.826;2022-09-20T06:30:57;12.00;99.90
37050;DHT22;22958;51.232;6.826;2022-09-20T06:33:23;12.00;99.90
37050;DHT22;22958;51.232;6.826;2022-09-20T06:41:02;12.20;99.90
37050;DHT22;22958;51.232;6.826;2022-09-20T06:43:46;12.30;99.90
37050;DHT22;22958;51.232;6.826;2022-09-20T06:46:12;12.40;99.90
37050;DHT22;22958;51.232;6.826;2022-09-20T06:48:39;12.30;99.90
37050;DHT22;22958;51.232;6.826;2022-09-20T06:51:05;12.20;99.90
37050;DHT22;22958;51.232;6.826;2022-09-20T06:53:32;12.20;99.90
37050;DHT22;22958;51.232;6.826;2022-09-20T06:55:59;12.20;99.90
37050;DHT22;22958;51.232;6.826;2022-09-20T06:58:25;12.20;99.90
37050;DHT22;22958;51.232;6.826;2022-09-20T07:00:50;12.10;99.90
37050;DHT22;22958;51.232;6.826;2022-09-20T07:03:16;12.10;99.90
37050;DHT22;22958;51.232;6.826;2022-09-20T07:05:44;12.10;99.90
37050;DHT22;22958;51.232;6.826;2022-09-20T07:08:09;12.10;99.90
37050;DHT22;22958;51.232;6.826;2022-09-20T07:10:35;12.20;99.90
37050;DHT22;22958;51.232;6.826;2022-09-20T07:13:00;12.20;99.90
37050;DHT22;22958;51.232;6.826;2022-09-20T07:15:26;12.40;99.90
37050;DHT22;22958;51.232;6.826;2022-09-20T07:17:53;12.60;99.90
37050;DHT22;22958;51.232;6.826;2022-09-20T07:20:18;13.00;99.90
37050;DHT22;22958;51.232;6.826;2022-09-20T07:22:45;13.30;99.90
37050;DHT22;22958;51.232;6.826;2022-09-20T07:25:10;13.50;99.90
37050;DHT22;22958;51.232;6.826;2022-09-20T07:27:35;13.40;99.90
37050;DHT22;22958;51.232;6.826;2022-09-20T07:30:01;13.50;99.90
37050;DHT22;22958;51.232;6.826;2022-09-20T07:32:27;13.30;99.90
37050;DHT22;22958;51.232;6.826;2022-09-20T07:34:52;13.10;99.90
37050;DHT22;22958;51.232;6.826;2022-09-20T07:37:18;13.20;99.90
37050;DHT22;22958;51.232;6.826;2022-09-20T07:39:44;13.20;99.90
37050;DHT22;22958;51.232;6.826;2022-09-20T07:42:10;13.20;99.90
37050;DHT22;22958;51.232;6.826;2022-09-20T07:44:35;13.20;99.90
37050;DHT22;22958;51.232;6.826;2022-09-20T07:47:01;13.30;99.90
37050;DHT22;22958;51.232;6.826;2022-09-20T07:49:27;13.50;99.90
37050;DHT22;22958;51.232;6.826;2022-09-20T07:51:56;13.80;99.90
37050;DHT22;22958;51.232;6.826;2022-09-20T07:54:22;14.00;99.90
37050;DHT22;22958;51.232;6.826;2022-09-20T07:56:47;13.80;99.90
37050;DHT22;22958;51.232;6.826;2022-09-20T07:59:13;14.00;99.90
37050;DHT22;22958;51.232;6.826;2022-09-20T08:01:39;14.20;99.90
37050;DHT22;22958;51.232;6.826;2022-09-20T08:04:08;14.30;99.90
37050;DHT22;22958;51.232;6.826;2022-09-20T08:06:37;14.30;99.90
37050;DHT22;22958;51.232;6.826;2022-09-20T08:09:04;14.30;99.90
37050;DHT22;22958;51.232;6.826;2022-09-20T08:11:29;14.60;99.90
37050;DHT22;22958;51.232;6.826;2022-09-20T08:13:55;14.80;99.90
37050;DHT22;22958;51.232;6.826;2022-09-20T08:16:21;14.70;99.90
37050;DHT22;22958;51.232;6.826;2022-09-20T08:18:47;14.70;99.90
37050;DHT22;22958;51.232;6.826;2022-09-20T08:21:13;14.80;99.90
37050;DHT22;22958;51.232;6.826;2022-09-20T08:23:40;14.90;99.90
37050;DHT22;22958;51.232;6.826;2022-09-20T08:26:07;14.90;99.90
37050;DHT22;22958;51.232;6.826;2022-09-20T08:28:32;14.70;99.90
37050;DHT22;22958;51.232;6.826;2022-09-20T08:31:06;14.40;99.90
37050;DHT22;22958;51.232;6.826;2022-09-20T08:33:32;14.30;99.90
37050;DHT22;22958;51.232;6.826;2022-09-20T08:35:58;14.30;99.90
37050;DHT22;22958;51.232;6.826;2022-09-20T08:38:24;14.30;99.90
37050;DHT22;22958;51.232;6.826;2022-09-20T08:40:53;14.50;99.90
37050;DHT22;22958;51.232;6.826;2022-09-20T08:43:20;14.20;99.90
37050;DHT22;22958;51.232;6.826;2022-09-20T08:45:46;14.10;99.90
37050;DHT22;22958;51.232;6.826;2022-09-20T08:48:12;13.90;99.90
37050;DHT22;22958;51.232;6.826;2022-09-20T08:50:40;13.90;99.90
37050;DHT22;22958;51.232;6.826;2022-09-20T08:53:06;13.90;99.90
37050;DHT22;22958;51.232;6.826;2022-09-20T08:55:35;13.70;99.90
37050;DHT22;22958;51.232;6.826;2022-09-20T08:58:04;13.60;99.90
37050;DHT22;22958;51.232;6.826;2022-09-20T09:00:30;13.80;99.90
37050;DHT22;22958;51.232;6.826;2022-09-20T09:02:57;14.00;99.90
37050;DHT22;22958;51.232;6.826;2022-09-20T09:05:31;14.20;99.90
37050;DHT22;22958;51.232;6.826;2022-09-20T09:07:58;14.40;99.90
37050;DHT22;22958;51.232;6.826;2022-09-20T09:10:29;14.60;99.90
37050;DHT22;22958;51.232;6.826;2022-09-20T09:13:00;14.70;99.90
37050;DHT22;22958;51.232;6.826;2022-09-20T09:15:29;14.90;99.90
37050;DHT22;22958;51.232;6.826;2022-09-20T09:17:56;14.90;99.90
37050;DHT22;22958;51.232;6.826;2022-09-20T09:20:22;14.80;99.90
37050;DHT22;22958;51.232;6.826;2022-09-20T09:22:57;14.70;99.90
37050;DHT22;22958;51.232;6.826;2022-09-20T09:25:24;14.60;99.90
37050;DHT22;22958;51.232;6.826;2022-09-20T09:30:20;14.90;99.90
37050;DHT22;22958;51.232;6.826;2022-09-20T09:32:46;15.20;99.90
37050;DHT22;22958;51.232;6.826;2022-09-20T09:37:53;15.20;99.90
37050;DHT22;22958;51.232;6.826;2022-09-20T09:40:19;15.30;99.90
37050;DHT22;22958;51.232;6.826;2022-09-20T09:42:49;15.50;99.90
37050;DHT22;22958;51.232;6.826;2022-09-20T09:45:25;15.40;99.90
37050;DHT22;22958;51.232;6.826;2022-09-20T09:47:51;15.10;99.90
37050;DHT22;22958;51.232;6.826;2022-09-20T09:50:20;14.90;99.90
37050;DHT22;22958;51.232;6.826;2022-09-20T09:52:55;15.10;99.90
37050;DHT22;22958;51.232;6.826;2022-09-20T09:55:22;15.00;99.90
37050;DHT22;22958;51.232;6.826;2022-09-20T09:57:56;15.30;99.90
37050;DHT22;22958;51.232;6.826;2022-09-20T10:00:25;15.80;99.90
37050;DHT22;22958;51.232;6.826;2022-09-20T10:05:31;15.70;99.90
37050;DHT22;22958;51.232;6.826;2022-09-20T10:26:01;14.90;99.90
37050;DHT22;22958;51.232;6.826;2022-09-20T10:31:24;14.70;99.90
37050;DHT22;22958;51.232;6.826;2022-09-20T10:36:52;14.40;99.90
37050;DHT22;22958;51.232;6.826;2022-09-20T10:39:25;14.50;99.90
37050;DHT22;22958;51.232;6.826;2022-09-20T10:41:56;14.40;99.90
37050;DHT22;22958;51.232;6.826;2022-09-20T10:44:47;14.50;99.90
37050;DHT22;22958;51.232;6.826;2022-09-20T10:47:17;14.60;99.90
37050;DHT22;22958;51.232;6.826;2022-09-20T11:03:16;14.50;99.90
37050;DHT22;22958;51.232;6.826;2022-09-20T11:05:55;14.40;99.90
37050;DHT22;22958;51.232;6.826;2022-09-20T11:08:25;14.50;99.90
37050;DHT22;22958;51.232;6.826;2022-09-20T11:11:00;14.50;99.90
37050;DHT22;22958;51.232;6.826;2022-09-20T11:13:35;14.50;99.90
37050;DHT22;22958;51.232;6.826;2022-09-20T11:16:08;14.40;99.90
37050;DHT22;22958;51.232;6.826;2022-09-20T11:18:40;14.50;99.90
37050;DHT22;22958;51.232;6.826;2022-09-20T11:21:09;14.60;99.90
37050;DHT22;22958;51.232;6.826;2022-09-20T11:23:53;14.80;99.90
37050;DHT22;22958;51.232;6.826;2022-09-20T11:26:24;14.80;99.90
37050;DHT22;22958;51.232;6.826;2022-09-20T11:29:02;15.00;99.90
37050;DHT22;22958;51.232;6.826;2022-09-20T11:31:34;15.50;99.90
37050;DHT22;22958;51.232;6.826;2022-09-20T11:36:51;17.80;99.90
37050;DHT22;22958;51.232;6.826;2022-09-20T11:41:54;20.90;99.90
37050;DHT22;22958;51.232;6.826;2022-09-20T11:44:20;21.20;99.90
37050;DHT22;22958;51.232;6.826;2022-09-20T11:46:59;20.40;99.90
37050;DHT22;22958;51.232;6.826;2022-09-20T11:49:28;20.00;99.90
37050;DHT22;22958;51.232;6.826;2022-09-20T11:52:00;18.70;99.90
37050;DHT22;22958;51.232;6.826;2022-09-20T11:57:14;18.40;99.90
37050;DHT22;22958;51.232;6.826;2022-09-20T11:59:41;18.30;99.90
37050;DHT22;22958;51.232;6.826;2022-09-20T12:02:19;19.50;99.90
37050;DHT22;22958;51.232;6.826;2022-09-20T12:04:46;21.00;99.90
37050;DHT22;22958;51.232;6.826;2022-09-20T12:12:47;16.80;99.90
37050;DHT22;22958;51.232;6.826;2022-09-20T12:23:41;15.50;99.90
37050;DHT22;22958;51.232;6.826;2022-09-20T12:25:51;15.40;99.90
37050;DHT22;22958;51.232;6.826;2022-09-20T12:33:53;15.50;99.90
37050;DHT22;22958;51.232;6.826;2022-09-20T12:36:19;15.60;99.90
37050;DHT22;22958;51.232;6.826;2022-09-20T12:38:45;15.40;99.90
37050;DHT22;22958;51.232;6.826;2022-09-20T12:41:13;15.50;99.90
37050;DHT22;22958;51.232;6.826;2022-09-20T12:43:56;15.50;99.90
37050;DHT22;22958;51.232;6.826;2022-09-20T12:46:23;15.50;99.90
37050;DHT22;22958;51.232;6.826;2022-09-20T12:48:50;15.70;99.90
37050;DHT22;22958;51.232;6.826;2022-09-20T12:51:29;16.30;99.90
37050;DHT22;22958;51.232;6.826;2022-09-20T12:54:14;16.90;99.90
37050;DHT22;22958;51.232;6.826;2022-09-20T12:56:40;16.60;99.90
37050;DHT22;22958;51.232;6.826;2022-09-20T12:59:24;16.40;99.90
37050;DHT22;22958;51.232;6.826;2022-09-20T13:01:55;16.90;99.90
37050;DHT22;22958;51.232;6.826;2022-09-20T13:04:40;16.90;99.90
37050;DHT22;22958;51.232;6.826;2022-09-20T13:09:50;17.00;99.90
37050;DHT22;22958;51.232;6.826;2022-09-20T13:12:15;17.40;99.90
37050;DHT22;22958;51.232;6.826;2022-09-20T13:14:41;18.60;99.90
37050;DHT22;22958;51.232;6.826;2022-09-20T13:19:41;17.10;99.90
37050;DHT22;22958;51.232;6.826;2022-09-20T13:24:44;18.60;99.90
37050;DHT22;22958;51.232;6.826;2022-09-20T13:27:13;19.20;99.90
37050;DHT22;22958;51.232;6.826;2022-09-20T13:29:41;20.90;99.90
37050;DHT22;22958;51.232;6.826;2022-09-20T13:32:14;20.70;99.90
37050;DHT22;22958;51.232;6.826;2022-09-20T13:34:39;21.60;99.90
37050;DHT22;22958;51.232;6.826;2022-09-20T13:37:13;23.50;99.90
37050;DHT22;22958;51.232;6.826;2022-09-20T13:39:53;22.10;99.90
37050;DHT22;22958;51.232;6.826;2022-09-20T13:42:19;23.70;99.90
37050;DHT22;22958;51.232;6.826;2022-09-20T13:44:45;24.10;99.90
37050;DHT22;22958;51.232;6.826;2022-09-20T13:47:21;24.80;99.90
37050;DHT22;22958;51.232;6.826;2022-09-20T13:49:46;22.30;99.90
37050;DHT22;22958;51.232;6.826;2022-09-20T13:52:17;19.90;99.90
37050;DHT22;22958;51.232;6.826;2022-09-20T13:54:44;20.30;99.90
37050;DHT22;22958;51.232;6.826;2022-09-20T13:57:12;19.80;99.90
37050;DHT22;22958;51.232;6.826;2022-09-20T13:59:41;20.40;99.90
37050;DHT22;22958;51.232;6.826;2022-09-20T14:05:03;22.90;99.90
37050;DHT22;22958;51.232;6.826;2022-09-20T14:07:29;21.90;99.90
37050;DHT22;22958;51.232;6.826;2022-09-20T14:09:55;20.50;99.90
37050;DHT22;22958;51.232;6.826;2022-09-20T14:12:21;22.20;99.90
37050;DHT22;22958;51.232;6.826;2022-09-20T14:14:48;22.90;99.90
37050;DHT22;22958;51.232;6.826;2022-09-20T14:17:15;21.00;99.90
37050;DHT22;22958;51.232;6.826;2022-09-20T14:19:42;22.00;99.90
37050;DHT22;22958;51.232;6.826;2022-09-20T14:22:21;24.40;99.90
37050;DHT22;22958;51.232;6.826;2022-09-20T14:25:22;22.40;99.90
37050;DHT22;22958;51.232;6.826;2022-09-20T14:27:40;22.70;99.90
37050;DHT22;22958;51.232;6.826;2022-09-20T14:30:06;25.30;99.90
37050;DHT22;22958;51.232;6.826;2022-09-20T14:32:52;25.10;99.90
37050;DHT22;22958;51.232;6.826;2022-09-20T14:35:19;24.90;99.90
37050;DHT22;22958;51.232;6.826;2022-09-20T14:40:16;26.10;98.60
37050;DHT22;22958;51.232;6.826;2022-09-20T14:42:47;24.90;98.50
37050;DHT22;22958;51.232;6.826;2022-09-20T14:45:23;22.10;99.90
37050;DHT22;22958;51.232;6.826;2022-09-20T14:47:57;22.40;99.90
37050;DHT22;22958;51.232;6.826;2022-09-20T14:50:30;21.60;99.90
37050;DHT22;22958;51.232;6.826;2022-09-20T14:53:29;20.80;99.90
37050;DHT22;22958;51.232;6.826;2022-09-20T14:55:55;21.30;99.90
37050;DHT22;22958;51.232;6.826;2022-09-20T14:58:20;21.40;99.90
37050;DHT22;22958;51.232;6.826;2022-09-20T15:03:15;20.90;99.90
37050;DHT22;22958;51.232;6.826;2022-09-20T15:05:41;20.30;99.90
37050;DHT22;22958;51.232;6.826;2022-09-20T15:08:07;20.50;99.90
37050;DHT22;22958;51.232;6.826;2022-09-20T15:10:35;21.00;99.90
37050;DHT22;22958;51.232;6.826;2022-09-20T15:13:00;20.40;99.90
37050;DHT22;22958;51.232;6.826;2022-09-20T15:15:25;20.20;99.90
37050;DHT22;22958;51.232;6.826;2022-09-20T15:17:51;19.60;99.90
37050;DHT22;22958;51.232;6.826;2022-09-20T15:20:19;19.30;99.90
37050;DHT22;22958;51.232;6.826;2022-09-20T15:22:46;21.20;99.90
37050;DHT22;22958;51.232;6.826;2022-09-20T15:25:12;20.90;99.90
37050;DHT22;22958;51.232;6.826;2022-09-20T15:27:39;18.80;99.90
37050;DHT22;22958;51.232;6.826;2022-09-20T15:30:04;18.50;99.90
37050;DHT22;22958;51.232;6.826;2022-09-20T15:32:30;18.10;99.90
37050;DHT22;22958;51.232;6.826;2022-09-20T15:34:55;17.80;99.90
37050;DHT22;22958;51.232;6.826;2022-09-20T15:37:21;17.30;99.90
37050;DHT22;22958;51.232;6.826;2022-09-20T15:39:47;17.10;99.90
37050;DHT22;22958;51.232;6.826;2022-09-20T15:42:12;17.00;99.90
37050;DHT22;22958;51.232;6.826;2022-09-20T15:44:37;17.00;99.90
37050;DHT22;22958;51.232;6.826;2022-09-20T15:47:03;16.80;99.90
37050;DHT22;22958;51.232;6.826;2022-09-20T15:49:28;16.80;99.90
37050;DHT22;22958;51.232;6.826;2022-09-20T15:51:55;16.70;99.90
37050;DHT22;22958;51.232;6.826;2022-09-20T15:54:21;16.80;99.90
37050;DHT22;22958;51.232;6.826;2022-09-20T15:56:46;16.90;99.90
37050;DHT22;22958;51.232;6.826;2022-09-20T15:59:13;16.60;99.90
37050;DHT22;22958;51.232;6.826;2022-09-20T16:01:41;16.70;99.90
37050;DHT22;22958;51.232;6.826;2022-09-20T16:04:07;16.60;99.90
37050;DHT22;22958;51.232;6.826;2022-09-20T16:06:34;16.70;99.90
37050;DHT22;22958;51.232;6.826;2022-09-20T16:09:00;16.50;99.90
37050;DHT22;22958;51.232;6.826;2022-09-20T16:11:25;16.40;99.90
37050;DHT22;22958;51.232;6.826;2022-09-20T16:13:52;16.20;99.90
37050;DHT22;22958;51.232;6.826;2022-09-20T16:16:18;16.10;99.90
37050;DHT22;22958;51.232;6.826;2022-09-20T16:18:44;16.10;99.90
37050;DHT22;22958;51.232;6.826;2022-09-20T16:21:28;16.10;99.90
37050;DHT22;22958;51.232;6.826;2022-09-20T16:23:54;16.00;99.90
37050;DHT22;22958;51.232;6.826;2022-09-20T16:26:20;16.10;99.90
37050;DHT22;22958;51.232;6.826;2022-09-20T16:28:46;16.40;99.90
37050;DHT22;22958;51.232;6.826;2022-09-20T16:33:59;16.70;99.90
37050;DHT22;22958;51.232;6.826;2022-09-20T16:36:25;16.80;99.90
37050;DHT22;22958;51.232;6.826;2022-09-20T16:38:50;17.00;99.90
37050;DHT22;22958;51.232;6.826;2022-09-20T16:41:16;17.10;99.90
37050;DHT22;22958;51.232;6.826;2022-09-20T16:43:41;17.00;99.90
37050;DHT22;22958;51.232;6.826;2022-09-20T16:46:07;16.80;99.90
37050;DHT22;22958;51.232;6.826;2022-09-20T16:48:33;16.40;99.90
37050;DHT22;22958;51.232;6.826;2022-09-20T16:51:00;16.30;99.90
37050;DHT22;22958;51.232;6.826;2022-09-20T16:53:25;16.10;99.90
37050;DHT22;22958;51.232;6.826;2022-09-20T16:55:51;16.00;99.90
37050;DHT22;22958;51.232;6.826;2022-09-20T16:58:26;16.00;99.90
37050;DHT22;22958;51.232;6.826;2022-09-20T17:00:52;15.90;99.90
37050;DHT22;22958;51.232;6.826;2022-09-20T17:03:18;15.90;99.90
37050;DHT22;22958;51.232;6.826;2022-09-20T17:05:44;16.00;99.90
37050;DHT22;22958;51.232;6.826;2022-09-20T17:08:10;16.00;99.90
37050;DHT22;22958;51.232;6.826;2022-09-20T17:10:35;16.00;99.90
37050;DHT22;22958;51.232;6.826;2022-09-20T17:13:01;15.90;99.90
37050;DHT22;22958;51.232;6.826;2022-09-20T17:15:27;15.80;99.90
37050;DHT22;22958;51.232;6.826;2022-09-20T17:17:52;15.80;99.90
37050;DHT22;22958;51.232;6.826;2022-09-20T17:20:18;15.80;99.90
37050;DHT22;22958;51.232;6.826;2022-09-20T17:22:43;15.70;99.90
37050;DHT22;22958;51.232;6.826;2022-09-20T17:25:08;15.80;99.90
37050;DHT22;22958;51.232;6.826;2022-09-20T17:27:34;15.70;99.90
37050;DHT22;22958;51.232;6.826;2022-09-20T17:30:04;15.70;99.90
37050;DHT22;22958;51.232;6.826;2022-09-20T17:32:30;15.60;99.90
37050;DHT22;22958;51.232;6.826;2022-09-20T17:34:56;15.60;99.90
37050;DHT22;22958;51.232;6.826;2022-09-20T17:37:21;15.50;99.90
37050;DHT22;22958;51.232;6.826;2022-09-20T17:39:47;15.40;99.90
37050;DHT22;22958;51.232;6.826;2022-09-20T17:42:12;15.50;99.90
37050;DHT22;22958;51.232;6.826;2022-09-20T17:44:37;15.30;99.90
37050;DHT22;22958;51.232;6.826;2022-09-20T17:47:03;15.30;99.90
37050;DHT22;22958;51.232;6.826;2022-09-20T17:49:29;15.20;99.90
37050;DHT22;22958;51.232;6.826;2022-09-20T17:51:55;15.20;99.90
37050;DHT22;22958;51.232;6.826;2022-09-20T17:54:21;15.20;99.90
37050;DHT22;22958;51.232;6.826;2022-09-20T17:56:48;15.10;99.90
37050;DHT22;22958;51.232;6.826;2022-09-20T17:59:14;15.00;99.90
37050;DHT22;22958;51.232;6.826;2022-09-20T18:01:40;15.00;99.90
37050;DHT22;22958;51.232;6.826;2022-09-20T18:04:07;15.00;99.90
37050;DHT22;22958;51.232;6.826;2022-09-20T18:06:37;14.90;99.90
37050;DHT22;22958;51.232;6.826;2022-09-20T18:09:06;14.90;99.90
37050;DHT22;22958;51.232;6.826;2022-09-20T18:11:39;14.80;99.90
37050;DHT22;22958;51.232;6.826;2022-09-20T18:14:06;14.70;99.90
37050;DHT22;22958;51.232;6.826;2022-09-20T18:16:32;14.60;99.90
37050;DHT22;22958;51.232;6.826;2022-09-20T18:18:59;14.60;99.90
37050;DHT22;22958;51.232;6.826;2022-09-20T18:21:25;14.60;99.90
37050;DHT22;22958;51.232;6.826;2022-09-20T18:23:51;14.60;99.90
37050;DHT22;22958;51.232;6.826;2022-09-20T18:26:22;14.50;99.90
37050;DHT22;22958;51.232;6.826;2022-09-20T18:31:23;14.40;99.90
37050;DHT22;22958;51.232;6.826;2022-09-20T18:33:53;14.30;99.90
37050;DHT22;22958;51.232;6.826;2022-09-20T18:36:19;14.20;99.90
37050;DHT22;22958;51.232;6.826;2022-09-20T18:38:44;14.10;99.90
37050;DHT22;22958;51.232;6.826;2022-09-20T18:41:10;14.00;99.90
37050;DHT22;22958;51.232;6.826;2022-09-20T18:43:40;14.00;99.90
37050;DHT22;22958;51.232;6.826;2022-09-20T18:46:11;13.90;99.90
37050;DHT22;22958;51.232;6.826;2022-09-20T18:48:37;13.90;99.90
37050;DHT22;22958;51.232;6.826;2022-09-20T18:51:05;13.80;99.90
37050;DHT22;22958;51.232;6.826;2022-09-20T18:53:31;13.60;99.90
37050;DHT22;22958;51.232;6.826;2022-09-20T18:56:06;13.50;99.90
37050;DHT22;22958;51.232;6.826;2022-09-20T18:58:32;13.50;99.90
37050;DHT22;22958;51.232;6.826;2022-09-20T19:01:15;13.40;99.90
37050;DHT22;22958;51.232;6.826;2022-09-20T19:06:29;13.20;99.90
37050;DHT22;22958;51.232;6.826;2022-09-20T19:09:06;13.10;99.90
37050;DHT22;22958;51.232;6.826;2022-09-20T19:11:38;13.00;99.90
37050;DHT22;22958;51.232;6.826;2022-09-20T19:14:06;12.90;99.90
37050;DHT22;22958;51.232;6.826;2022-09-20T19:16:35;12.80;99.90
37050;DHT22;22958;51.232;6.826;2022-09-20T19:21:27;12.60;99.90
37050;DHT22;22958;51.232;6.826;2022-09-20T19:24:14;12.60;99.90
37050;DHT22;22958;51.232;6.826;2022-09-20T19:26:45;12.50;99.90
37050;DHT22;22958;51.232;6.826;2022-09-20T19:29:21;12.40;99.90
37050;DHT22;22958;51.232;6.826;2022-09-20T19:31:50;12.30;99.90
37050;DHT22;22958;51.232;6.826;2022-09-20T19:34:34;12.20;99.90
37050;DHT22;22958;51.232;6.826;2022-09-20T19:45:18;11.90;99.90
37050;DHT22;22958;51.232;6.826;2022-09-20T19:50:32;11.90;99.90
37050;DHT22;22958;51.232;6.826;2022-09-20T19:53:00;11.80;99.90
37050;DHT22;22958;51.232;6.826;2022-09-20T19:55:33;11.70;99.90
37050;DHT22;22958;51.232;6.826;2022-09-20T19:58:00;11.70;99.90
37050;DHT22;22958;51.232;6.826;2022-09-20T20:00:26;11.60;99.90
37050;DHT22;22958;51.232;6.826;2022-09-20T20:02:51;11.60;99.90
37050;DHT22;22958;51.232;6.826;2022-09-20T20:05:21;11.50;99.90
37050;DHT22;22958;51.232;6.826;2022-09-20T20:16:24;11.40;99.90
37050;DHT22;22958;51.232;6.826;2022-09-20T20:19:03;11.50;99.90
37050;DHT22;22958;51.232;6.826;2022-09-20T20:21:42;11.50;99.90
37050;DHT22;22958;51.232;6.826;2022-09-20T20:24:25;11.40;99.90